sensor_id;sensor_type;location;lat;lon;timestamp;pressure;altitude;pressure_sealevel;temperature;humidity
50696;BME280;36665;51.786;21.594;2022-09-03T00:17:31;93442.66;;;7.77;58.03
50696;BME280;36665;51.786;21.594;2022-09-03T00:34:38;93464.15;;;7.84;57.98
50696;BME280;36665;51.786;21.594;2022-09-03T00:43:09;93464.34;;;7.83;58.15
50696;BME280;36665;51.786;21.594;2022-09-03T00:51:51;93447.98;;;7.79;58.08
50696;BME280;36665;51.786;21.594;2022-09-03T01:00:19;93439.45;;;7.77;57.97
50696;BME280;36665;51.786;21.594;2022-09-03T01:08:50;93424.13;;;7.73;58.13
50696;BME280;36665;51.786;21.594;2022-09-03T01:34:55;93398.81;;;7.67;58.07
50696;BME280;36665;51.786;21.594;2022-09-03T01:52:14;93323.52;;;7.46;58.28
50696;BME280;36665;51.786;21.594;2022-09-03T02:00:41;93297.06;;;7.38;58.14
50696;BME280;36665;51.786;21.594;2022-09-03T02:09:06;93246.91;;;7.25;58.33
50696;BME280;36665;51.786;21.594;2022-09-03T02:17:32;93227.07;;;7.18;58.24
50696;BME280;36665;51.786;21.594;2022-09-03T02:25:59;93224.98;;;7.18;58.38
50696;BME280;36665;51.786;21.594;2022-09-03T02:34:23;93206.23;;;7.13;58.37
50696;BME280;36665;51.786;21.594;2022-09-03T02:42:47;93161.40;;;7.00;58.38
50696;BME280;36665;51.786;21.594;2022-09-03T02:51:10;93162.04;;;7.01;58.53
50696;BME280;36665;51.786;21.594;2022-09-03T02:59:36;93175.72;;;7.05;58.42
50696;BME280;36665;51.786;21.594;2022-09-03T03:08:01;93156.49;;;7.01;58.34
50696;BME280;36665;51.786;21.594;2022-09-03T03:16:24;93130.22;;;6.93;58.37
50696;BME280;36665;51.786;21.594;2022-09-03T03:24:47;93113.44;;;6.88;58.41
50696;BME280;36665;51.786;21.594;2022-09-03T03:33:12;93092.84;;;6.83;58.35
50696;BME280;36665;51.786;21.594;2022-09-03T03:41:35;93092.23;;;6.83;58.55
50696;BME280;36665;51.786;21.594;2022-09-03T03:49:59;93109.98;;;6.87;58.62
50696;BME280;36665;51.786;21.594;2022-09-03T03:58:23;93115.27;;;6.89;58.72
50696;BME280;36665;51.786;21.594;2022-09-03T04:06:47;93085.01;;;6.81;58.62
50696;BME280;36665;51.786;21.594;2022-09-03T04:15:10;93092.48;;;6.84;58.69
50696;BME280;36665;51.786;21.594;2022-09-03T04:23:36;93115.91;;;6.89;58.65
50696;BME280;36665;51.786;21.594;2022-09-03T04:31:59;93132.95;;;6.94;58.87
50696;BME280;36665;51.786;21.594;2022-09-03T04:40:41;93199.54;;;7.12;58.85
50696;BME280;36665;51.786;21.594;2022-09-03T04:49:04;93279.83;;;7.35;58.98
50696;BME280;36665;51.786;21.594;2022-09-03T04:57:29;93365.54;;;7.57;59.02
50696;BME280;36665;51.786;21.594;2022-09-03T05:05:57;93443.10;;;7.78;59.11
50696;BME280;36665;51.786;21.594;2022-09-03T05:14:20;93562.68;;;8.10;59.18
50696;BME280;36665;51.786;21.594;2022-09-03T05:22:43;93954.59;;;9.14;59.42
50696;BME280;36665;51.786;21.594;2022-09-03T05:31:08;95172.32;;;12.33;60.19
50696;BME280;36665;51.786;21.594;2022-09-03T05:39:31;96304.76;;;15.20;60.80
50696;BME280;36665;51.786;21.594;2022-09-03T05:47:54;97201.36;;;17.40;61.05
50696;BME280;36665;51.786;21.594;2022-09-03T05:56:22;97775.30;;;18.79;61.38
50696;BME280;36665;51.786;21.594;2022-09-03T06:04:46;98165.47;;;19.69;61.72
50696;BME280;36665;51.786;21.594;2022-09-03T06:13:08;98393.57;;;20.21;61.94
50696;BME280;36665;51.786;21.594;2022-09-03T06:21:32;98345.48;;;20.09;62.01
50696;BME280;36665;51.786;21.594;2022-09-03T06:29:55;97956.39;;;19.15;62.22
50696;BME280;36665;51.786;21.594;2022-09-03T06:38:20;97575.02;;;18.22;61.79
50696;BME280;36665;51.786;21.594;2022-09-03T06:46:45;97432.33;;;17.87;61.74
50696;BME280;36665;51.786;21.594;2022-09-03T06:55:10;97347.92;;;17.66;61.73
50696;BME280;36665;51.786;21.594;2022-09-03T07:03:38;97355.45;;;17.68;61.97
50696;BME280;36665;51.786;21.594;2022-09-03T07:12:03;97328.53;;;17.61;61.89
50696;BME280;36665;51.786;21.594;2022-09-03T07:20:27;97459.37;;;17.94;62.02
50696;BME280;36665;51.786;21.594;2022-09-03T07:28:50;97519.45;;;18.08;61.78
50696;BME280;36665;51.786;21.594;2022-09-03T07:37:14;97617.65;;;18.32;62.00
50696;BME280;36665;51.786;21.594;2022-09-03T07:45:38;97724.08;;;18.57;61.92
50696;BME280;36665;51.786;21.594;2022-09-03T07:54:04;97786.48;;;18.71;61.94
50696;BME280;36665;51.786;21.594;2022-09-03T08:02:28;97827.64;;;18.81;61.75
50696;BME280;36665;51.786;21.594;2022-09-03T08:10:51;97919.36;;;19.03;61.96
50696;BME280;36665;51.786;21.594;2022-09-03T08:19:16;97972.98;;;19.16;61.80
50696;BME280;36665;51.786;21.594;2022-09-03T08:27:42;97970.27;;;19.15;62.08
50696;BME280;36665;51.786;21.594;2022-09-03T08:44:54;98235.10;;;19.78;61.92
50696;BME280;36665;51.786;21.594;2022-09-03T09:02:11;98385.48;;;20.13;61.82
50696;BME280;36665;51.786;21.594;2022-09-03T09:28:00;98427.63;;;20.24;62.12
50696;BME280;36665;51.786;21.594;2022-09-03T09:36:23;98430.95;;;20.24;61.71
50696;BME280;36665;51.786;21.594;2022-09-03T09:44:46;98485.27;;;20.37;61.64
50696;BME280;36665;51.786;21.594;2022-09-03T09:53:11;98556.25;;;20.53;61.71
50696;BME280;36665;51.786;21.594;2022-09-03T10:01:43;98628.23;;;20.71;61.66
50696;BME280;36665;51.786;21.594;2022-09-03T10:10:17;98637.21;;;20.74;61.78
50696;BME280;36665;51.786;21.594;2022-09-03T10:18:44;98634.61;;;20.73;61.59
50696;BME280;36665;51.786;21.594;2022-09-03T10:27:13;98727.02;;;20.96;61.38
50696;BME280;36665;51.786;21.594;2022-09-03T10:35:45;98755.88;;;21.03;61.56
50696;BME280;36665;51.786;21.594;2022-09-03T10:44:36;98720.15;;;20.95;61.60
50696;BME280;36665;51.786;21.594;2022-09-03T11:10:51;98661.23;;;20.82;61.15
50696;BME280;36665;51.786;21.594;2022-09-03T11:19:19;98652.33;;;20.80;61.15
50696;BME280;36665;51.786;21.594;2022-09-03T11:27:55;98631.70;;;20.77;61.09
50696;BME280;36665;51.786;21.594;2022-09-03T11:36:32;98595.59;;;20.69;60.86
50696;BME280;36665;51.786;21.594;2022-09-03T11:45:21;98560.89;;;20.61;60.80
50696;BME280;36665;51.786;21.594;2022-09-03T11:54:06;98577.79;;;20.66;60.69
50696;BME280;36665;51.786;21.594;2022-09-03T12:03:00;98616.82;;;20.76;60.65
50696;BME280;36665;51.786;21.594;2022-09-03T12:11:32;98625.97;;;20.78;60.69
50696;BME280;36665;51.786;21.594;2022-09-03T12:20:00;98637.64;;;20.81;60.50
50696;BME280;36665;51.786;21.594;2022-09-03T12:28:25;98642.29;;;20.84;60.50
50696;BME280;36665;51.786;21.594;2022-09-03T12:36:52;98663.97;;;20.88;60.40
50696;BME280;36665;51.786;21.594;2022-09-03T12:45:19;98672.92;;;20.92;60.17
50696;BME280;36665;51.786;21.594;2022-09-03T12:53:43;98654.52;;;20.88;60.31
50696;BME280;36665;51.786;21.594;2022-09-03T13:02:17;98627.29;;;20.82;60.13
50696;BME280;36665;51.786;21.594;2022-09-03T13:10:43;98578.83;;;20.72;60.03
50696;BME280;36665;51.786;21.594;2022-09-03T13:36:55;98522.35;;;20.61;59.70
50696;BME280;36665;51.786;21.594;2022-09-03T13:46:17;98527.45;;;20.63;59.68
50696;BME280;36665;51.786;21.594;2022-09-03T13:54:28;98501.77;;;20.57;59.53
50696;BME280;36665;51.786;21.594;2022-09-03T14:03:43;98485.55;;;20.53;59.40
50696;BME280;36665;51.786;21.594;2022-09-03T14:12:28;98485.14;;;20.54;59.44
50696;BME280;36665;51.786;21.594;2022-09-03T14:29:35;98434.42;;;20.43;59.21
50696;BME280;36665;51.786;21.594;2022-09-03T15:04:24;98283.13;;;20.11;58.77
50696;BME280;36665;51.786;21.594;2022-09-03T15:12:58;98170.89;;;19.85;58.71
50696;BME280;36665;51.786;21.594;2022-09-03T15:30:14;98041.64;;;19.56;58.57
50696;BME280;36665;51.786;21.594;2022-09-03T15:39:08;98032.00;;;19.55;58.44
50696;BME280;36665;51.786;21.594;2022-09-03T15:56:23;97972.91;;;19.42;58.24
50696;BME280;36665;51.786;21.594;2022-09-03T16:14:34;97797.98;;;18.99;58.08
50696;BME280;36665;51.786;21.594;2022-09-03T16:23:01;97697.54;;;18.76;57.90
50696;BME280;36665;51.786;21.594;2022-09-03T16:48:49;97380.73;;;18.00;57.66
50696;BME280;36665;51.786;21.594;2022-09-03T17:29:12;96731.40;;;16.42;57.18
50696;BME280;36665;51.786;21.594;2022-09-03T17:55:33;96186.55;;;15.07;56.71
50696;BME280;36665;51.786;21.594;2022-09-03T18:04:13;95988.92;;;14.56;56.50
50696;BME280;36665;51.786;21.594;2022-09-03T18:13:10;95814.17;;;14.13;56.45
50696;BME280;36665;51.786;21.594;2022-09-03T18:21:37;95686.98;;;13.80;56.35
50696;BME280;36665;51.786;21.594;2022-09-03T18:30:19;95539.83;;;13.43;56.25
50696;BME280;36665;51.786;21.594;2022-09-03T18:48:05;95255.27;;;12.70;56.00
50696;BME280;36665;51.786;21.594;2022-09-03T18:56:50;95153.95;;;12.44;55.92
50696;BME280;36665;51.786;21.594;2022-09-03T19:05:52;95044.81;;;12.16;55.90
50696;BME280;36665;51.786;21.594;2022-09-03T19:23:26;94884.10;;;11.76;55.83
50696;BME280;36665;51.786;21.594;2022-09-03T19:32:16;94793.27;;;11.53;55.72
50696;BME280;36665;51.786;21.594;2022-09-03T19:41:04;94679.18;;;11.22;55.60
50696;BME280;36665;51.786;21.594;2022-09-03T19:50:32;94614.53;;;11.05;55.56
50696;BME280;36665;51.786;21.594;2022-09-03T19:59:20;94549.73;;;10.89;55.45
50696;BME280;36665;51.786;21.594;2022-09-03T20:08:05;94451.97;;;10.63;55.44
50696;BME280;36665;51.786;21.594;2022-09-03T20:25:28;94293.95;;;10.22;55.45
50696;BME280;36665;51.786;21.594;2022-09-03T20:43:01;94214.95;;;10.01;55.32
50696;BME280;36665;51.786;21.594;2022-09-03T20:51:50;94165.25;;;9.89;55.37
50696;BME280;36665;51.786;21.594;2022-09-03T21:00:18;94132.08;;;9.80;55.29
50696;BME280;36665;51.786;21.594;2022-09-03T21:26:14;94097.09;;;9.72;55.22
50696;BME280;36665;51.786;21.594;2022-09-03T21:35:22;94068.27;;;9.63;55.32
50696;BME280;36665;51.786;21.594;2022-09-03T21:52:50;93986.02;;;9.43;55.26
50696;BME280;36665;51.786;21.594;2022-09-03T22:01:21;93886.64;;;9.16;55.16
50696;BME280;36665;51.786;21.594;2022-09-03T22:10:26;93855.63;;;9.08;55.19
50696;BME280;36665;51.786;21.594;2022-09-03T22:18:54;93867.01;;;9.12;55.33
50696;BME280;36665;51.786;21.594;2022-09-03T22:27:22;93822.14;;;9.00;55.17
50696;BME280;36665;51.786;21.594;2022-09-03T22:36:22;93751.92;;;8.82;55.30
50696;BME280;36665;51.786;21.594;2022-09-03T22:54:04;93758.02;;;8.83;55.20
50696;BME280;36665;51.786;21.594;2022-09-03T23:02:31;93717.14;;;8.73;55.12
50696;BME280;36665;51.786;21.594;2022-09-03T23:11:20;93670.15;;;8.59;55.34
50696;BME280;36665;51.786;21.594;2022-09-03T23:19:53;93625.18;;;8.48;55.05
50696;BME280;36665;51.786;21.594;2022-09-03T23:28:31;93606.81;;;8.44;55.05
50696;BME280;36665;51.786;21.594;2022-09-03T23:37:34;93603.55;;;8.42;55.17
50696;BME280;36665;51.786;21.594;2022-09-03T23:46:22;93567.74;;;8.32;55.24
50696;BME280;36665;51.786;21.594;2022-09-03T23:55:06;93551.34;;;8.28;55.26
